Time;durP1;ratioP1;P1;durP2;ratioP2;P2;SDS_P1;SDS_P2;PMS_P1;PMS_P2;Temp;Humidity;BMP_temperature;BMP_pressure;BME280_temperature;BME280_humidity;BME280_pressure;Samples;Min_cycle;Max_cycle;Signal;HPM_P1;HPM_P2
2021/01/06 00:02:11;;;;;;;27.03;13.83;;;;;;;3.53;70.54;98561.69;251681;1134;115447;-71
2021/01/06 00:07:13;;;;;;;27.67;15.38;;;;;;;3.52;70.37;98570.47;251644;1133;115528;-71
2021/01/06 00:12:18;;;;;;;31.63;17.10;;;;;;;3.49;70.34;98567.97;251529;1132;115057;-70
2021/01/06 00:17:21;;;;;;;29.37;15.20;;;;;;;3.50;70.22;98571.48;251798;1134;115029;-70
2021/01/06 00:22:24;;;;;;;28.77;16.12;;;;;;;3.53;70.73;98571.33;251613;1133;115054;-71
2021/01/06 00:27:26;;;;;;;35.33;16.93;;;;;;;3.55;70.34;98564.23;251717;1135;115896;-71
2021/01/06 00:32:29;;;;;;;32.57;17.53;;;;;;;3.55;70.50;98564.23;251817;1133;115004;-70
2021/01/06 00:37:31;;;;;;;28.60;16.37;;;;;;;3.55;70.12;98574.77;251765;1132;114731;-71
2021/01/06 00:42:37;;;;;;;30.97;17.03;;;;;;;3.49;69.72;98575.86;251649;1132;114918;-71
2021/01/06 00:47:41;;;;;;;31.57;17.77;;;;;;;3.43;70.52;98572.62;251599;1135;114840;-71
2021/01/06 00:52:44;;;;;;;33.33;17.23;;;;;;;3.40;69.61;98578.88;251577;1132;115309;-70
2021/01/06 00:57:47;;;;;;;32.83;16.40;;;;;;;3.42;70.32;98584.06;251672;1133;114646;-71
2021/01/06 01:02:52;;;;;;;30.97;17.57;;;;;;;3.49;70.75;98596.90;251717;1132;115042;-70
2021/01/06 01:07:58;;;;;;;32.40;17.57;;;;;;;3.50;70.21;98595.16;251738;1133;115187;-70
2021/01/06 01:13:04;;;;;;;31.07;18.17;;;;;;;3.52;70.51;98596.78;251643;1134;115030;-71
2021/01/06 01:18:11;;;;;;;30.90;16.97;;;;;;;3.53;70.71;98595.88;252025;1135;115289;-70
2021/01/06 01:23:16;;;;;;;30.27;17.60;;;;;;;3.53;70.56;98601.14;251898;1134;114561;-70
2021/01/06 01:28:21;;;;;;;34.90;17.87;;;;;;;3.53;70.66;98592.38;251737;1134;115158;-70
2021/01/06 01:33:28;;;;;;;29.55;17.65;;;;;;;3.54;70.38;98592.33;251628;1133;114980;-70
2021/01/06 01:38:31;;;;;;;33.13;18.32;;;;;;;3.54;69.81;98605.48;251532;1134;114831;-71
2021/01/06 01:43:35;;;;;;;35.47;18.63;;;;;;;3.56;70.33;98608.88;251677;1135;115081;-71
2021/01/06 01:48:48;;;;;;;33.73;18.52;;;;;;;3.61;70.45;98607.87;251624;1132;114795;-71
2021/01/06 01:53:53;;;;;;;34.03;19.53;;;;;;;3.66;69.90;98603.25;251723;1134;115776;-70
2021/01/06 01:58:57;;;;;;;36.68;20.75;;;;;;;3.70;70.22;98594.31;251776;1134;114945;-70
2021/01/06 02:04:14;;;;;;;32.17;18.10;;;;;;;3.70;70.58;98589.93;251714;1132;115131;-70
2021/01/06 02:09:26;;;;;;;31.70;18.80;;;;;;;3.68;69.70;98604.91;251650;1133;114676;-71
2021/01/06 02:14:35;;;;;;;31.17;17.77;;;;;;;3.67;70.02;98603.21;251662;1132;114883;-71
2021/01/06 02:19:40;;;;;;;30.77;17.57;;;;;;;3.68;70.15;98598.80;251883;1134;115041;-71
2021/01/06 02:24:43;;;;;;;;;;;;;;;3.65;70.29;98593.66;251649;1134;114828;-70
2021/01/06 02:29:46;;;;;;;33.75;17.02;;;;;;;3.65;70.03;98585.77;251794;1133;102337;-71
2021/01/06 02:34:49;;;;;;;29.20;17.63;;;;;;;3.69;70.81;98582.08;251726;1135;116366;-71
2021/01/06 02:39:51;;;;;;;34.70;18.52;;;;;;;3.69;70.56;98575.04;251673;1134;114885;-71
2021/01/06 02:44:54;;;;;;;32.07;17.20;;;;;;;3.67;69.96;98587.42;251809;1135;115995;-71
2021/01/06 02:49:56;;;;;;;30.88;16.95;;;;;;;3.66;70.63;98585.69;251738;1133;114740;-71
2021/01/06 02:55:00;;;;;;;33.73;17.82;;;;;;;3.68;69.63;98590.91;251834;1135;114988;-71
2021/01/06 03:00:06;;;;;;;32.17;17.27;;;;;;;3.63;69.58;98587.59;251896;1133;114707;-71
2021/01/06 03:05:20;;;;;;;34.00;17.60;;;;;;;3.61;70.38;98599.97;251977;1134;114859;-70
2021/01/06 03:10:22;;;;;;;32.53;16.87;;;;;;;3.68;70.63;98601.43;251451;1133;115983;-70
2021/01/06 03:15:27;;;;;;;31.07;16.57;;;;;;;3.75;70.30;98602.89;251764;1134;114963;-71
2021/01/06 03:20:41;;;;;;;31.57;16.67;;;;;;;3.79;70.33;98583.41;252014;1134;114921;-71
2021/01/06 03:25:44;;;;;;;32.37;16.03;;;;;;;3.82;70.14;98593.81;251736;1132;115022;-71
2021/01/06 03:30:48;;;;;;;28.70;15.83;;;;;;;3.86;70.59;98586.64;251795;1134;114838;-70
2021/01/06 03:35:58;;;;;;;32.67;16.33;;;;;;;3.85;69.77;98572.63;251751;1133;115000;-71
2021/01/06 03:41:02;;;;;;;29.15;14.78;;;;;;;3.85;70.61;98567.37;251526;1132;114946;-71
2021/01/06 03:46:22;;;;;;;26.40;15.10;;;;;;;3.84;69.66;98575.31;251674;1135;115288;-70
2021/01/06 03:51:54;;;;;;;27.63;14.90;;;;;;;3.84;69.77;98570.93;251626;1132;115121;-71
2021/01/06 03:56:59;;;;;;;28.47;15.70;;;;;;;3.81;69.86;98571.05;251715;1134;115228;-70
2021/01/06 04:02:12;;;;;;;31.80;15.13;;;;;;;3.85;70.01;98567.37;251699;1132;115122;-70
2021/01/06 04:07:21;;;;;;;26.57;14.35;;;;;;;3.89;69.95;98574.20;251716;1134;114950;-71
2021/01/06 04:12:23;;;;;;;30.80;15.37;;;;;;;3.92;70.10;98573.23;251747;1132;115579;-70
2021/01/06 04:17:34;;;;;;;28.03;15.90;;;;;;;3.96;69.44;98567.75;251876;1132;116126;-71
2021/01/06 04:22:43;;;;;;;30.80;15.10;;;;;;;3.99;69.25;98564.14;251700;1133;114721;-71
2021/01/06 04:27:48;;;;;;;28.00;15.20;;;;;;;3.97;70.07;98566.86;251809;1132;115301;-70
2021/01/06 04:32:51;;;;;;;25.93;13.53;;;;;;;3.96;70.03;98572.17;251603;1133;114443;-71
2021/01/06 04:37:55;;;;;;;25.00;13.50;;;;;;;3.91;70.18;98569.75;251780;1135;114676;-70
2021/01/06 04:43:04;;;;;;;29.77;15.07;;;;;;;3.89;69.96;98568.94;251615;1133;114912;-71
2021/01/06 04:48:25;;;;;;;22.70;13.70;;;;;;;3.88;69.75;98561.13;251492;1133;114860;-71
2021/01/06 04:53:39;;;;;;;28.77;14.80;;;;;;;3.87;70.13;98557.61;251608;1133;115021;-70
2021/01/06 04:59:06;;;;;;;32.20;15.23;;;;;;;3.87;69.96;98554.13;251714;1134;114594;-71
2021/01/06 05:04:50;;;;;;;25.05;14.23;;;;;;;3.87;70.10;98562.88;251699;1132;115592;-71
2021/01/06 05:10:00;;;;;;;26.70;14.70;;;;;;;3.91;70.39;98571.53;251616;1133;114594;-71
2021/01/06 05:15:23;;;;;;;25.57;15.15;;;;;;;3.94;69.53;98569.62;251554;1135;114862;-71
2021/01/06 05:20:25;;;;;;;27.37;14.77;;;;;;;3.93;69.46;98575.78;251736;1133;114947;-70
2021/01/06 05:25:29;;;;;;;26.37;13.83;;;;;;;3.95;69.86;98579.22;251764;1131;114796;-71
2021/01/06 05:30:34;;;;;;;24.50;14.15;;;;;;;3.95;69.50;98579.22;251782;1135;114747;-70
2021/01/06 05:35:38;;;;;;;;;;;;;;;3.93;70.26;98575.78;251623;1132;115087;-71
2021/01/06 05:40:43;;;;;;;24.63;13.85;;;;;;;3.91;69.49;98574.16;251963;1132;102599;-70
2021/01/06 05:45:54;;;;;;;25.77;13.40;;;;;;;3.88;69.88;98576.92;251755;1135;115120;-71
2021/01/06 05:51:14;;;;;;;26.33;14.53;;;;;;;3.88;69.97;98575.14;251862;1134;115093;-70
2021/01/06 05:56:24;;;;;;;27.53;14.67;;;;;;;3.90;69.56;98562.75;251716;1132;114670;-71
2021/01/06 06:01:50;;;;;;;28.27;14.73;;;;;;;3.91;70.23;98566.27;251924;1132;115089;-71
2021/01/06 06:07:12;;;;;;;23.90;14.90;;;;;;;3.90;69.17;98570.64;251853;1133;115227;-71
2021/01/06 06:12:36;;;;;;;25.97;14.87;;;;;;;3.87;69.75;98581.30;251930;1132;115091;-71
2021/01/06 06:18:03;;;;;;;24.27;14.47;;;;;;;3.78;69.14;98582.56;252052;1133;114820;-70
2021/01/06 06:23:43;;;;;;;27.87;14.03;;;;;;;3.65;69.04;98578.72;251801;1138;114935;-70
2021/01/06 06:28:57;;;;;;;29.50;15.03;;;;;;;3.54;69.37;98584.44;252000;1132;115146;-72
2021/01/06 06:34:06;;;;;;;25.50;14.80;;;;;;;3.46;69.27;98589.13;251745;1132;115109;-71
2021/01/06 06:39:33;;;;;;;27.93;15.13;;;;;;;3.43;69.81;98593.66;251767;1133;114772;-71
2021/01/06 06:44:48;;;;;;;26.53;15.07;;;;;;;3.44;69.73;98593.62;251832;1135;115083;-71
2021/01/06 06:50:02;;;;;;;27.62;16.27;;;;;;;3.48;69.50;98596.98;252229;1136;114957;-71
2021/01/06 06:55:25;;;;;;;29.77;16.00;;;;;;;3.51;70.06;98594.23;252059;1134;115865;-71
2021/01/06 07:00:29;;;;;;;30.67;16.07;;;;;;;3.52;69.94;98591.52;251925;1139;115265;-71
2021/01/06 07:05:47;;;;;;;27.75;16.02;;;;;;;3.54;69.71;98599.37;251996;1136;114866;-71
2021/01/06 07:11:01;;;;;;;30.80;16.15;;;;;;;3.57;70.58;98593.98;251943;1133;114766;-70
2021/01/06 07:16:16;;;;;;;31.60;17.00;;;;;;;3.58;69.84;98592.20;251895;1135;114966;-70
2021/01/06 07:21:24;;;;;;;30.25;17.95;;;;;;;3.60;70.03;98598.23;251912;1134;115998;-70
2021/01/06 07:26:33;;;;;;;35.95;19.35;;;;;;;3.59;70.47;98586.86;251735;1133;115050;-71
2021/01/06 07:31:43;;;;;;;33.70;17.33;;;;;;;3.65;69.98;98593.66;251711;1134;115430;-71
2021/01/06 07:36:53;;;;;;;34.50;19.30;;;;;;;3.69;69.94;98579.45;251849;1135;115167;-70
2021/01/06 07:41:56;;;;;;;34.00;19.15;;;;;;;3.73;70.29;98589.77;251931;1132;114765;-71
2021/01/06 07:47:01;;;;;;;34.27;18.60;;;;;;;3.73;69.98;98594.19;251574;1134;115140;-70
2021/01/06 07:52:18;;;;;;;36.38;19.10;;;;;;;3.72;69.75;98605.64;251716;1134;115176;-72
2021/01/06 07:57:42;;;;;;;33.57;18.87;;;;;;;3.69;69.89;98603.13;251741;1136;115603;-72
2021/01/06 08:02:57;;;;;;;37.10;18.90;;;;;;;3.67;69.89;98610.22;251759;1134;114813;-72
2021/01/06 08:08:16;;;;;;;30.32;17.37;;;;;;;3.66;70.46;98603.25;252114;1134;114882;-71
2021/01/06 08:13:30;;;;;;;34.17;18.73;;;;;;;3.67;69.72;98597.06;251975;1132;114862;-72
2021/01/06 08:18:32;;;;;;;33.28;17.87;;;;;;;3.68;69.81;98585.64;251881;1132;114663;-72
2021/01/06 08:23:58;;;;;;;35.13;17.87;;;;;;;3.75;69.96;98576.57;251910;1134;115045;-72
2021/01/06 08:29:30;;;;;;;34.30;18.80;;;;;;;3.84;70.53;98572.67;251912;1135;114905;-73
2021/01/06 08:34:35;;;;;;;30.37;18.67;;;;;;;3.91;70.01;98575.02;251773;1132;114880;-72
2021/01/06 08:39:57;;;;;;;37.47;20.30;;;;;;;3.99;70.10;98578.16;251801;1132;115743;-73
2021/01/06 08:45:01;;;;;;;34.83;19.77;;;;;;;4.02;69.45;98577.18;251862;1132;114736;-72
2021/01/06 08:50:15;;;;;;;33.83;20.23;;;;;;;4.02;69.61;98580.66;251720;1132;114767;-71
2021/01/06 08:55:25;;;;;;;33.63;19.35;;;;;;;3.97;69.40;98572.12;251959;1134;114848;-72
2021/01/06 09:00:28;;;;;;;33.98;18.45;;;;;;;4.00;70.05;98573.74;252050;1133;115062;-73
2021/01/06 09:05:49;;;;;;;32.83;19.27;;;;;;;4.00;70.36;98577.23;251856;1132;114900;-72
2021/01/06 09:11:01;;;;;;;36.90;20.48;;;;;;;4.06;70.11;98565.59;251861;1133;114833;-69
2021/01/06 09:16:13;;;;;;;33.48;18.07;;;;;;;4.18;70.01;98569.48;251929;1133;114832;-72
2021/01/06 09:21:21;;;;;;;37.48;20.17;;;;;;;4.30;69.54;98553.12;251705;1132;115272;-79
2021/01/06 09:26:27;;;;;;;36.75;19.77;;;;;;;4.37;69.50;98541.38;251393;1132;115449;-71
2021/01/06 09:31:34;;;;;;;33.70;20.87;;;;;;;4.44;69.53;98544.59;251953;1133;115022;-72
2021/01/06 09:36:37;;;;;;;34.65;20.08;;;;;;;4.48;70.34;98541.78;251816;1134;116156;-72
2021/01/06 09:41:40;;;;;;;37.03;20.03;;;;;;;4.50;69.42;98539.91;251572;1133;115567;-72
2021/01/06 09:46:43;;;;;;;34.30;19.60;;;;;;;4.53;69.16;98533.65;251944;1135;115104;-69
2021/01/06 09:51:50;;;;;;;31.17;18.95;;;;;;;4.53;70.25;98531.02;251850;1133;115045;-72
2021/01/06 09:56:53;;;;;;;36.83;20.17;;;;;;;4.52;69.70;98531.95;251892;1133;114957;-71
2021/01/06 10:02:14;;;;;;;41.53;21.33;;;;;;;4.57;70.00;98521.19;250811;1134;114865;-71
2021/01/06 10:07:50;;;;;;;35.53;20.97;;;;;;;4.63;69.49;98513.00;251826;1133;115980;-73
2021/01/06 10:13:05;;;;;;;41.00;23.00;;;;;;;4.70;70.17;98501.25;252026;1133;115166;-73
2021/01/06 10:18:32;;;;;;;43.17;23.30;;;;;;;4.77;69.84;98484.22;251859;1134;114952;-72
2021/01/06 10:23:54;;;;;;;38.90;22.00;;;;;;;4.82;70.35;98471.66;251991;1132;114775;-73
2021/01/06 10:29:08;;;;;;;42.38;23.65;;;;;;;4.83;69.74;98465.48;252063;1132;114878;-73
2021/01/06 10:34:19;;;;;;;47.70;24.73;;;;;;;4.86;70.12;98438.13;251870;1135;114556;-73
2021/01/06 10:39:37;;;;;;;42.83;24.57;;;;;;;4.88;69.25;98426.55;251949;1133;114942;-72
2021/01/06 10:45:02;;;;;;;43.80;25.23;;;;;;;4.95;69.63;98430.59;251952;1132;115054;-73
2021/01/06 10:50:34;;;;;;;44.87;25.33;;;;;;;5.06;70.03;98431.84;251784;1140;114780;-72
2021/01/06 10:55:39;;;;;;;40.20;23.27;;;;;;;5.16;70.36;98433.98;251735;1134;114888;-72
2021/01/06 11:01:08;;;;;;;41.40;24.40;;;;;;;5.36;70.55;98413.63;251993;1135;115028;-72
2021/01/06 11:06:32;;;;;;;43.80;23.80;;;;;;;5.48;70.58;98388.41;251611;1133;115179;-72
2021/01/06 11:11:40;;;;;;;37.30;22.65;;;;;;;5.56;70.20;98394.14;251742;1135;114759;-73
2021/01/06 11:17:19;;;;;;;41.07;24.17;;;;;;;5.59;70.18;98407.18;251916;1133;114764;-72
2021/01/06 11:22:43;;;;;;;42.25;23.60;;;;;;;5.63;70.29;98390.24;251915;1132;114987;-72
2021/01/06 11:27:56;;;;;;;39.90;22.58;;;;;;;5.63;70.08;98363.84;251816;1131;114879;-72
2021/01/06 11:33:19;;;;;;;37.10;21.65;;;;;;;5.61;69.99;98352.54;251660;1132;115306;-72
2021/01/06 11:38:33;;;;;;;38.95;23.07;;;;;;;5.58;70.27;98340.34;251853;1132;114879;-72
2021/01/06 11:43:52;;;;;;;43.35;23.87;;;;;;;5.59;68.97;98338.56;251903;1132;115141;-72
2021/01/06 11:49:12;;;;;;;38.80;23.87;;;;;;;5.66;69.29;98330.22;251946;1133;115455;-72
2021/01/06 11:54:27;;;;;;;41.17;23.57;;;;;;;5.77;69.41;98331.44;251797;1135;115473;-72
2021/01/06 11:59:41;;;;;;;40.13;23.10;;;;;;;5.83;70.24;98333.75;251808;1132;115121;-72
2021/01/06 12:05:14;;;;;;;38.20;23.35;;;;;;;5.90;69.38;98322.77;251715;1135;115213;-73
2021/01/06 12:10:22;;;;;;;38.23;23.17;;;;;;;5.93;69.25;98319.14;251811;1133;114803;-72
2021/01/06 12:15:52;;;;;;;38.47;23.33;;;;;;;5.91;69.59;98316.56;252063;1133;114986;-72
2021/01/06 12:20:55;;;;;;;44.97;24.80;;;;;;;5.89;68.87;98293.81;251772;1133;114965;-73
2021/01/06 12:25:58;;;;;;;37.93;23.17;;;;;;;5.84;69.04;98283.52;251923;1134;114753;-72
2021/01/06 12:31:06;;;;;;;43.23;25.00;;;;;;;5.82;69.52;98282.73;251854;1132;115368;-72
2021/01/06 12:36:20;;;;;;;38.63;22.40;;;;;;;5.87;70.23;98267.48;251906;1132;115125;-72
2021/01/06 12:41:25;;;;;;;41.97;24.00;;;;;;;5.92;69.94;98273.41;251825;1132;115268;-72
2021/01/06 12:47:02;;;;;;;39.60;22.70;;;;;;;5.96;70.11;98282.00;251854;1134;115241;-72
2021/01/06 12:52:05;;;;;;;44.93;22.67;;;;;;;5.97;69.15;98277.57;251426;1133;115919;-71
2021/01/06 12:57:21;;;;;;;41.83;23.18;;;;;;;5.96;69.36;98275.88;251854;1132;115115;-72
2021/01/06 13:02:32;;;;;;;43.07;24.50;;;;;;;5.92;69.87;98273.41;251776;1132;114803;-73
2021/01/06 13:07:39;;;;;;;39.55;21.33;;;;;;;5.88;70.24;98269.20;251832;1135;115131;-71
2021/01/06 13:12:44;;;;;;;44.60;23.27;;;;;;;5.86;68.93;98271.06;251803;1133;114806;-72
2021/01/06 13:18:04;;;;;;;39.03;22.30;;;;;;;5.82;70.10;98268.69;252105;1134;115268;-72
2021/01/06 13:23:37;;;;;;;45.77;24.97;;;;;;;5.80;69.08;98281.95;251805;1134;114763;-74
2021/01/06 13:29:01;;;;;;;43.20;23.87;;;;;;;5.84;69.52;98266.80;251989;1134;115381;-75
2021/01/06 13:34:22;;;;;;;36.70;22.52;;;;;;;5.90;69.75;98267.30;251953;1132;115102;-74
2021/01/06 13:39:30;;;;;;;43.23;22.67;;;;;;;5.97;69.46;98267.00;251918;1134;115105;-75
2021/01/06 13:44:42;;;;;;;39.03;21.17;;;;;;;5.98;69.65;98266.06;251952;1132;114891;-73
2021/01/06 13:50:09;;;;;;;39.00;21.13;;;;;;;5.98;69.45;98263.42;251777;1133;114784;-73
2021/01/06 13:55:31;;;;;;;38.03;20.83;;;;;;;5.94;69.50;98254.81;252005;1135;114663;-75
2021/01/06 14:01:08;;;;;;;34.53;20.80;;;;;;;5.93;70.38;98267.17;251917;1132;115247;-76
2021/01/06 14:06:23;;;;;;;33.70;19.47;;;;;;;5.91;70.48;98263.75;251919;1134;114889;-73
2021/01/06 14:11:51;;;;;;;41.85;20.82;;;;;;;5.90;70.86;98267.30;251707;1134;114836;-76
2021/01/06 14:17:13;;;;;;;32.70;18.20;;;;;;;5.99;70.25;98270.42;251595;1134;114906;-75
2021/01/06 14:22:35;;;;;;;35.57;20.50;;;;;;;6.01;70.93;98279.97;251837;1133;115131;-78
2021/01/06 14:27:47;;;;;;;30.40;17.50;;;;;;;6.04;69.76;98286.85;251732;1135;115255;-77
2021/01/06 14:33:21;;;;;;;36.67;19.13;;;;;;;6.05;70.35;98280.66;251950;1134;114874;-74
2021/01/06 14:38:34;;;;;;;31.03;17.17;;;;;;;6.04;70.09;98292.13;251815;1133;114812;-74
2021/01/06 14:43:42;;;;;;;32.78;17.98;;;;;;;6.04;70.92;98289.49;251790;1135;115080;-72
2021/01/06 14:48:50;;;;;;;36.33;18.77;;;;;;;5.96;70.06;98289.92;251307;1134;115106;-73
2021/01/06 14:54:11;;;;;;;43.30;23.77;;;;;;;5.95;70.23;98301.44;250847;1134;115355;-73
2021/01/06 14:59:31;;;;;;;42.20;22.90;;;;;;;5.92;70.54;98299.81;251925;1133;115098;-71
2021/01/06 15:04:38;;;;;;;46.93;24.07;;;;;;;5.90;71.04;98296.36;251682;1134;114973;-76
2021/01/06 15:09:55;;;;;;;44.08;24.25;;;;;;;5.90;71.08;98279.66;251808;1134;115051;-75
2021/01/06 15:15:03;;;;;;;44.43;23.73;;;;;;;5.85;70.50;98282.57;252050;1134;115398;-73
2021/01/06 15:20:18;;;;;;;43.37;24.07;;;;;;;5.77;71.19;98282.12;251832;1133;115098;-74
2021/01/06 15:25:25;;;;;;;39.35;24.43;;;;;;;5.67;70.67;98281.80;251928;1132;114913;-79
2021/01/06 15:30:32;;;;;;;46.40;26.37;;;;;;;5.62;70.49;98281.17;251757;1135;114763;-75
2021/01/06 15:35:39;;;;;;;49.00;27.65;;;;;;;5.59;71.07;98277.85;251913;1134;114974;-77
2021/01/06 15:40:41;;;;;;;47.80;27.27;;;;;;;5.58;71.13;98268.24;251685;1133;115318;-76
2021/01/06 15:45:45;;;;;;;49.67;28.87;;;;;;;5.56;70.39;98255.11;252029;1132;115073;-77
2021/01/06 15:51:23;;;;;;;51.47;28.20;;;;;;;5.49;71.14;98255.53;251757;1132;115390;-75
2021/01/06 15:56:33;;;;;;;52.83;29.45;;;;;;;5.42;70.07;98263.77;251611;1133;114780;-75
2021/01/06 16:01:35;;;;;;;50.90;28.77;;;;;;;5.35;70.36;98272.95;251613;1132;115232;-75
2021/01/06 16:07:02;;;;;;;50.87;29.53;;;;;;;5.26;70.38;98278.70;251714;1133;114747;-76
2021/01/06 16:12:14;;;;;;;61.80;32.90;;;;;;;5.22;70.35;98271.89;251701;1132;115136;-76
2021/01/06 16:17:22;;;;;;;57.33;32.43;;;;;;;5.26;70.66;98262.87;251716;1133;115211;-74
2021/01/06 16:22:30;;;;;;;60.20;33.37;;;;;;;5.27;70.61;98264.61;251951;1135;114986;-75
2021/01/06 16:27:36;;;;;;;55.12;34.20;;;;;;;5.25;71.45;98269.10;251896;1133;115436;-73
2021/01/06 16:32:58;;;;;;;61.65;34.30;;;;;;;5.25;71.46;98269.10;251575;1132;115167;-77
2021/01/06 16:38:12;;;;;;;55.60;32.13;;;;;;;5.18;70.71;98284.39;251428;1132;114732;-76
2021/01/06 16:43:20;;;;;;;59.70;32.17;;;;;;;5.15;70.70;98283.70;251749;1133;114736;-76
2021/01/06 16:48:24;;;;;;;56.20;30.43;;;;;;;5.11;71.31;98282.16;251837;1133;115203;-77
2021/01/06 16:53:31;;;;;;;60.98;33.55;;;;;;;5.06;70.67;98285.05;251573;1134;115790;-75
2021/01/06 16:58:33;;;;;;;65.03;35.00;;;;;;;5.06;71.85;98294.72;251681;1135;114943;-77
2021/01/06 17:03:41;;;;;;;65.60;38.10;;;;;;;5.05;71.37;98290.39;251864;1139;115018;-76
2021/01/06 17:08:45;;;;;;;66.77;38.60;;;;;;;5.07;71.71;98299.08;251706;1135;115119;-77
2021/01/06 17:13:49;;;;;;;71.67;39.43;;;;;;;5.06;71.84;98300.00;251603;1133;115415;-77
2021/01/06 17:19:01;;;;;;;68.28;39.88;;;;;;;5.08;70.88;98317.45;251785;1134;114663;-76
2021/01/06 17:24:26;;;;;;;67.47;37.70;;;;;;;5.00;70.67;98308.25;251959;1133;115168;-77
2021/01/06 17:29:35;;;;;;;64.42;36.95;;;;;;;4.86;70.95;98314.22;251969;1135;114735;-77
2021/01/06 17:34:37;;;;;;;73.10;39.30;;;;;;;4.74;70.51;98320.95;251792;1134;115975;-77
2021/01/06 17:39:41;;;;;;;67.43;37.77;;;;;;;4.72;71.68;98320.16;251708;1135;115994;-80
2021/01/06 17:44:47;;;;;;;69.37;38.23;;;;;;;4.67;70.65;98320.39;251919;1134;114907;-75
2021/01/06 17:49:50;;;;;;;68.77;40.00;;;;;;;4.66;70.73;98315.22;251489;1134;115136;-75
2021/01/06 17:54:53;;;;;;;68.83;39.53;;;;;;;4.60;70.40;98315.52;251411;1132;114819;-73
2021/01/06 17:59:59;;;;;;;67.53;37.43;;;;;;;4.57;70.49;98320.93;251876;1133;114625;-76
2021/01/06 18:05:20;;;;;;;72.40;40.23;;;;;;;4.50;71.72;98323.86;251614;1134;114924;-75
2021/01/06 18:10:24;;;;;;;68.65;37.23;;;;;;;4.46;71.20;98319.67;251713;1132;115192;-76
2021/01/06 18:15:27;;;;;;;75.17;40.28;;;;;;;4.44;71.46;98328.58;251901;1135;115882;-75
2021/01/06 18:20:34;;;;;;;74.27;41.63;;;;;;;4.45;70.88;98330.27;251835;1135;115131;-72
2021/01/06 18:25:41;;;;;;;72.00;40.40;;;;;;;4.48;71.25;98331.00;251822;1133;115269;-72
2021/01/06 18:30:46;;;;;;;76.47;42.60;;;;;;;4.47;71.55;98334.55;251763;1132;115523;-73
2021/01/06 18:35:49;;;;;;;;;;;;;;;4.47;71.35;98329.28;251746;1132;115751;-77
2021/01/06 18:40:52;;;;;;;72.33;41.43;;;;;;;4.46;71.50;98337.27;251819;1132;102459;-71
2021/01/06 18:45:55;;;;;;;78.37;42.73;;;;;;;4.48;71.58;98335.39;251649;1133;114849;-77
2021/01/06 18:50:57;;;;;;;76.47;42.27;;;;;;;4.44;71.29;98334.69;251771;1132;115011;-75
2021/01/06 18:55:59;;;;;;;83.83;45.83;;;;;;;4.43;71.66;98340.05;251572;1134;115531;-76
2021/01/06 19:01:18;;;;;;;81.53;45.73;;;;;;;4.45;71.55;98336.42;251697;1134;115412;-78
2021/01/06 19:06:35;;;;;;;75.43;42.93;;;;;;;4.51;71.01;98337.88;251758;1134;115068;-74
2021/01/06 19:11:41;;;;;;;72.03;40.97;;;;;;;4.51;71.90;98351.91;251846;1132;115549;-78
2021/01/06 19:16:43;;;;;;;78.77;43.73;;;;;;;4.51;71.45;98349.27;251824;1133;116469;-73
2021/01/06 19:21:46;;;;;;;83.90;44.20;;;;;;;4.53;71.26;98362.39;251727;1132;115164;-76
2021/01/06 19:26:48;;;;;;;79.07;43.00;;;;;;;4.56;71.21;98375.42;251906;1132;114826;-72
2021/01/06 19:31:50;;;;;;;72.60;40.53;;;;;;;4.51;71.81;98372.98;251655;1135;114775;-73
2021/01/06 19:36:53;;;;;;;82.30;44.93;;;;;;;4.48;71.75;98374.91;251819;1135;114855;-72
2021/01/06 19:41:55;;;;;;;78.97;44.97;;;;;;;4.54;70.97;98371.98;252049;1132;114713;-74
2021/01/06 19:46:58;;;;;;;81.63;46.30;;;;;;;4.58;71.99;98388.50;251637;1133;114942;-72
2021/01/06 19:52:02;;;;;;;84.40;45.35;;;;;;;4.62;71.54;98374.25;251583;1135;115011;-73
2021/01/06 19:57:21;;;;;;;81.50;45.93;;;;;;;4.67;71.22;98370.47;251790;1132;114870;-72
2021/01/06 20:02:27;;;;;;;81.45;44.67;;;;;;;4.66;71.89;98360.86;251645;1135;114915;-72
2021/01/06 20:07:29;;;;;;;79.10;44.83;;;;;;;4.65;71.88;98360.92;251772;1132;114870;-73
2021/01/06 20:12:32;;;;;;;77.73;43.97;;;;;;;4.60;70.59;98374.33;251916;1132;114952;-75
2021/01/06 20:17:34;;;;;;;84.03;46.20;;;;;;;4.57;70.80;98355.19;252030;1132;114829;-73
2021/01/06 20:22:37;;;;;;;78.50;44.27;;;;;;;4.62;70.64;98339.98;251941;1134;115042;-75
2021/01/06 20:27:39;;;;;;;77.00;43.23;;;;;;;4.65;71.30;98345.11;251963;1134;115118;-72
2021/01/06 20:32:42;;;;;;;85.27;44.67;;;;;;;4.69;71.52;98350.17;251775;1135;115728;-73
2021/01/06 20:37:44;;;;;;;72.53;42.57;;;;;;;4.73;70.71;98343.81;252061;1134;114832;-73
2021/01/06 20:42:47;;;;;;;79.97;43.25;;;;;;;4.71;71.09;98343.03;251900;1133;114803;-73
2021/01/06 20:47:49;;;;;;;86.10;47.50;;;;;;;4.65;71.75;98340.72;252081;1139;115029;-72
2021/01/06 20:52:51;;;;;;;80.13;46.27;;;;;;;4.58;71.16;98338.44;251624;1132;114833;-74
2021/01/06 20:57:54;;;;;;;88.13;46.77;;;;;;;4.50;71.29;98331.77;251552;1134;115168;-73
2021/01/06 21:02:57;;;;;;;86.27;46.00;;;;;;;4.54;71.80;98337.73;251903;1132;115103;-72
2021/01/06 21:07:59;;;;;;;83.37;46.75;;;;;;;4.58;71.35;98336.65;251633;1132;115421;-72
2021/01/06 21:13:04;;;;;;;82.27;46.73;;;;;;;4.59;71.55;98332.27;251650;1134;114960;-72
2021/01/06 21:18:06;;;;;;;84.62;46.53;;;;;;;4.57;71.70;98332.32;251689;1132;114747;-73
2021/01/06 21:23:09;;;;;;;89.17;48.20;;;;;;;4.56;71.63;98338.53;251814;1132;114945;-73
2021/01/06 21:28:11;;;;;;;87.50;47.77;;;;;;;4.58;71.83;98344.55;251709;1133;114768;-72
2021/01/06 21:33:14;;;;;;;81.85;44.95;;;;;;;4.55;71.71;98335.95;251839;1135;114917;-73
2021/01/06 21:38:16;;;;;;;80.60;45.50;;;;;;;4.50;71.82;98308.05;251792;1132;114731;-72
2021/01/06 21:43:19;;;;;;;87.80;47.67;;;;;;;4.54;71.08;98323.71;251622;1133;115113;-73
2021/01/06 21:48:22;;;;;;;81.97;44.80;;;;;;;4.60;72.09;98302.34;251749;1132;114744;-73
2021/01/06 21:53:24;;;;;;;78.52;44.98;;;;;;;4.65;72.19;98310.85;251605;1133;114800;-73
2021/01/06 21:58:27;;;;;;;76.33;41.85;;;;;;;4.66;71.32;98316.06;251814;1133;115265;-73
2021/01/06 22:03:29;;;;;;;76.67;42.53;;;;;;;4.64;71.96;98322.33;251723;1134;116455;-73
2021/01/06 22:08:32;;;;;;;73.85;42.58;;;;;;;4.62;71.19;98342.62;251824;1132;114783;-73
2021/01/06 22:13:34;;;;;;;81.67;43.47;;;;;;;4.62;71.61;98348.77;251832;1133;114722;-73
2021/01/06 22:18:40;;;;;;;77.27;45.00;;;;;;;4.61;70.88;98335.66;251659;1132;114570;-73
2021/01/06 22:23:44;;;;;;;76.97;42.33;;;;;;;4.58;71.52;98333.17;251863;1132;114344;-72
2021/01/06 22:28:47;;;;;;;87.77;45.43;;;;;;;4.51;71.26;98340.52;251744;1134;114950;-73
2021/01/06 22:33:49;;;;;;;74.27;43.05;;;;;;;4.53;71.25;98330.77;251787;1132;115282;-73
2021/01/06 22:38:52;;;;;;;78.97;44.20;;;;;;;4.60;71.92;98318.15;251674;1132;114795;-73
2021/01/06 22:43:55;;;;;;;87.00;46.93;;;;;;;4.61;71.06;98325.96;251830;1134;116040;-73
2021/01/06 22:48:57;;;;;;;76.28;44.18;;;;;;;4.61;71.69;98319.84;251588;1134;115117;-73
2021/01/06 22:54:01;;;;;;;82.53;45.58;;;;;;;4.59;71.45;98337.53;251909;1132;114664;-73
2021/01/06 22:59:04;;;;;;;86.07;46.90;;;;;;;4.58;70.77;98333.17;251954;1133;115340;-73
2021/01/06 23:04:07;;;;;;;81.13;45.83;;;;;;;4.51;71.31;98333.46;251939;1133;114881;-73
2021/01/06 23:09:09;;;;;;;81.23;45.90;;;;;;;4.41;70.55;98329.57;250928;1133;115083;-72
2021/01/06 23:14:11;;;;;;;90.32;49.50;;;;;;;4.40;70.79;98334.92;251962;1133;114682;-72
2021/01/06 23:19:17;;;;;;;83.40;47.57;;;;;;;4.39;71.28;98327.96;251833;1133;115044;-72
2021/01/06 23:24:20;;;;;;;88.77;49.87;;;;;;;4.36;71.03;98317.57;249043;1134;115003;-72
2021/01/06 23:29:32;;;;;;;91.70;50.27;;;;;;;4.34;70.60;98322.89;250325;1134;115411;-72